createdAt,value
2022-10-24T00:01:45.336Z,99264.38
2022-10-24T00:04:29.895Z,99264.38
2022-10-24T00:06:58.162Z,99261.03
2022-10-24T00:09:26.526Z,99268.72
2022-10-24T00:11:54.861Z,99277.44
2022-10-24T00:14:23.605Z,99288.22
2022-10-24T00:16:51.674Z,99293.84
2022-10-24T00:19:19.951Z,99280.13
2022-10-24T00:21:50.006Z,99306.72
2022-10-24T00:24:20.012Z,99307.09
2022-10-24T00:26:48.266Z,99307.75
2022-10-24T00:29:26.009Z,99313.75
2022-10-24T00:31:54.639Z,99314.34
2022-10-24T00:34:23.114Z,99316.53
2022-10-24T00:36:54.961Z,99328.94
2022-10-24T00:39:23.172Z,99328.25
2022-10-24T00:41:54.249Z,99330.69
2022-10-24T00:44:24.800Z,99327.66
2022-10-24T00:46:56.517Z,99324.84
2022-10-24T00:49:30.528Z,99334.50
2022-10-24T00:52:08.551Z,99332.59
2022-10-24T00:54:39.245Z,99330.94
2022-10-24T00:57:18.800Z,99345.44
2022-10-24T00:59:51.563Z,99350.41
2022-10-24T01:02:54.468Z,99356.38
2022-10-24T01:05:33.423Z,99357.91
2022-10-24T01:08:14.495Z,99358.03
2022-10-24T01:10:52.784Z,99347.19
2022-10-24T01:13:33.902Z,99362.03
2022-10-24T01:16:13.114Z,99368.47
2022-10-24T01:18:51.750Z,99378.19
2022-10-24T01:21:34.058Z,99371.16
2022-10-24T01:24:27.339Z,99375.22
2022-10-24T01:29:56.078Z,99379.59
2022-10-24T01:32:35.280Z,99378.19
2022-10-24T01:35:09.313Z,99381.56
2022-10-24T01:37:44.500Z,99386.28
2022-10-24T01:43:18.479Z,99395.38
2022-10-24T01:46:06.827Z,99392.00
2022-10-24T01:48:42.618Z,99398.44
2022-10-24T01:54:14.055Z,99403.53
2022-10-24T01:56:45.914Z,99397.13
2022-10-24T02:02:59.473Z,99415.34
2022-10-24T02:08:24.059Z,99412.56
2022-10-24T02:11:02.294Z,99414.03
2022-10-24T02:13:37.371Z,99407.03
2022-10-24T02:16:06.731Z,99418.28
2022-10-24T02:21:52.326Z,99428.28
2022-10-24T02:27:12.536Z,99427.03
2022-10-24T02:29:45.763Z,99418.09
2022-10-24T02:32:21.050Z,99412.69
2022-10-24T02:34:52.002Z,99421.16
2022-10-24T02:37:21.590Z,99430.72
2022-10-24T02:39:51.636Z,99425.25
2022-10-24T02:42:24.553Z,99429.50
2022-10-24T02:44:54.022Z,99438.06
2022-10-24T02:47:25.249Z,99431.91
2022-10-24T02:49:55.781Z,99430.31
2022-10-24T02:52:27.528Z,99435.34
2022-10-24T02:54:58.174Z,99436.44
2022-10-24T02:57:27.054Z,99437.84
2022-10-24T03:02:43.054Z,99442.56
2022-10-24T03:05:14.707Z,99448.41
2022-10-24T03:07:46.372Z,99461.41
2022-10-24T03:10:16.153Z,99444.03
2022-10-24T03:12:46.346Z,99448.03
2022-10-24T03:15:14.755Z,99448.50
2022-10-24T03:17:59.170Z,99455.72
2022-10-24T03:20:30.004Z,99453.31
2022-10-24T03:23:06.094Z,99459.16
2022-10-24T03:29:11.176Z,99455.28
2022-10-24T03:31:45.076Z,99469.00
2022-10-24T03:34:14.163Z,99469.06
2022-10-24T03:36:45.319Z,99468.50
2022-10-24T03:39:13.775Z,99479.34
2022-10-24T03:41:43.060Z,99473.94
2022-10-24T03:44:58.914Z,99483.53
2022-10-24T03:47:43.577Z,99478.97
2022-10-24T03:50:38.013Z,99478.41
2022-10-24T03:56:32.813Z,99497.91
2022-10-24T03:59:42.357Z,99492.97
2022-10-24T04:02:13.229Z,99496.13
2022-10-24T04:08:01.910Z,99505.66
2022-10-24T04:10:47.686Z,99505.31
2022-10-24T04:13:52.679Z,99512.19
2022-10-24T04:19:17.560Z,99517.44
2022-10-24T04:21:57.970Z,99523.28
2022-10-24T04:24:41.058Z,99520.13
2022-10-24T04:27:15.191Z,99517.63
2022-10-24T04:30:04.446Z,99518.66
2022-10-24T04:32:38.942Z,99530.66
2022-10-24T04:35:11.319Z,99526.09
2022-10-24T04:38:01.696Z,99527.31
2022-10-24T04:40:31.046Z,99530.41
2022-10-24T04:42:59.882Z,99533.50
2022-10-24T04:45:33.340Z,99530.91
2022-10-24T04:48:04.348Z,99536.50
2022-10-24T04:50:38.359Z,99538.34
2022-10-24T04:53:07.839Z,99532.50
2022-10-24T04:58:06.930Z,99540.06
2022-10-24T05:00:35.534Z,99548.31
2022-10-24T05:03:05.209Z,99549.72
2022-10-24T05:05:36.973Z,99551.16
2022-10-24T05:08:05.351Z,99560.88
2022-10-24T05:10:33.946Z,99565.81
2022-10-24T05:13:02.476Z,99567.47
2022-10-24T05:15:31.273Z,99568.31
2022-10-24T05:18:01.641Z,99571.66
2022-10-24T05:20:30.734Z,99569.59
2022-10-24T05:23:01.663Z,99570.00
2022-10-24T05:25:29.988Z,99580.94
2022-10-24T05:28:02.647Z,99580.69
2022-10-24T05:30:31.378Z,99589.97
2022-10-24T05:33:02.958Z,99592.84
2022-10-24T05:35:31.172Z,99597.09
2022-10-24T05:38:10.061Z,99590.03
2022-10-24T05:40:41.727Z,99602.47
2022-10-24T05:43:10.689Z,99593.28
2022-10-24T05:45:40.762Z,99606.13
2022-10-24T05:48:09.733Z,99608.81
2022-10-24T05:50:38.609Z,99611.50
2022-10-24T05:53:09.012Z,99605.28
2022-10-24T05:55:38.364Z,99603.88
2022-10-24T05:58:08.298Z,99608.63
2022-10-24T06:00:37.158Z,99611.94
2022-10-24T06:03:20.739Z,99610.75
2022-10-24T06:06:00.458Z,99616.16
2022-10-24T06:08:31.074Z,99612.97
2022-10-24T06:11:00.149Z,99622.91
2022-10-24T06:13:33.819Z,99623.13
2022-10-24T06:16:06.658Z,99626.84
2022-10-24T06:18:35.187Z,99630.53
2022-10-24T06:21:05.750Z,99629.88
2022-10-24T06:23:37.521Z,99628.88
2022-10-24T06:26:11.111Z,99629.88
2022-10-24T06:28:41.681Z,99624.84
2022-10-24T06:31:11.362Z,99632.94
2022-10-24T06:33:40.339Z,99625.69
2022-10-24T06:36:10.833Z,99626.84
2022-10-24T06:38:40.813Z,99633.91
2022-10-24T06:41:10.596Z,99638.06
2022-10-24T06:43:40.844Z,99640.59
2022-10-24T06:46:10.117Z,99647.28
2022-10-24T06:48:38.742Z,99646.41
2022-10-24T06:51:08.110Z,99647.44
2022-10-24T06:53:37.667Z,99662.25
2022-10-24T06:56:08.801Z,99655.38
2022-10-24T06:58:40.023Z,99656.34
2022-10-24T07:01:13.321Z,99664.16
2022-10-24T07:03:41.815Z,99664.16
2022-10-24T07:06:12.753Z,99667.69
2022-10-24T07:08:41.096Z,99663.81
2022-10-24T07:11:13.779Z,99670.50
2022-10-24T07:13:42.495Z,99671.84
2022-10-24T07:16:10.942Z,99678.50
2022-10-24T07:18:40.220Z,99683.34
2022-10-24T07:21:11.084Z,99688.09
2022-10-24T07:23:41.174Z,99686.22
2022-10-24T07:26:15.078Z,99692.66
2022-10-24T07:28:46.865Z,99694.66
2022-10-24T07:31:19.498Z,99699.34
2022-10-24T07:33:47.984Z,99700.63
2022-10-24T07:36:20.121Z,99698.25
2022-10-24T07:38:57.072Z,99709.66
2022-10-24T07:41:31.910Z,99710.97
2022-10-24T07:44:02.371Z,99716.63
2022-10-24T07:46:40.168Z,99717.09
2022-10-24T07:49:09.667Z,99714.28
2022-10-24T07:51:40.077Z,99720.34
2022-10-24T07:54:08.541Z,99721.63
2022-10-24T07:56:38.998Z,99724.31
2022-10-24T07:59:09.542Z,99718.28
2022-10-24T08:01:42.891Z,99717.00
2022-10-24T08:04:13.528Z,99726.38
2022-10-24T08:06:43.051Z,99730.38
2022-10-24T08:09:11.475Z,99725.19
2022-10-24T08:11:44.815Z,99735.22
2022-10-24T08:14:17.974Z,99733.63
2022-10-24T08:16:46.586Z,99739.66
2022-10-24T08:19:15.463Z,99745.34
2022-10-24T08:21:44.159Z,99745.34
2022-10-24T08:24:12.805Z,99747.09
2022-10-24T08:26:42.653Z,99746.34
2022-10-24T08:29:12.264Z,99757.59
2022-10-24T08:31:41.137Z,99758.63
2022-10-24T08:34:10.075Z,99767.00
2022-10-24T08:36:40.859Z,99754.72
2022-10-24T08:39:10.933Z,99772.41
2022-10-24T08:44:49.295Z,99774.53
2022-10-24T08:50:26.248Z,99776.41
2022-10-24T08:53:07.677Z,99787.47
2022-10-24T08:55:49.132Z,99787.91
2022-10-24T08:58:54.888Z,99786.75
2022-10-24T09:01:31.689Z,99786.84
2022-10-24T09:04:04.844Z,99786.44
2022-10-24T09:06:37.738Z,99793.34
2022-10-24T09:09:19.039Z,99797.16
2022-10-24T09:12:13.037Z,99793.66
2022-10-24T09:40:34.056Z,99810.00
2022-10-24T09:43:22.033Z,99829.72
2022-10-24T09:45:53.464Z,99837.84
2022-10-24T09:51:16.837Z,99831.75
2022-10-24T09:56:54.437Z,99846.56
2022-10-24T09:59:49.728Z,99846.75
2022-10-24T10:13:00.386Z,99880.16
2022-10-24T10:15:53.224Z,99875.06
2022-10-24T10:18:46.574Z,99873.97
2022-10-24T10:21:21.694Z,99877.13
2022-10-24T10:24:06.832Z,99873.69
2022-10-24T10:27:06.287Z,99891.31
2022-10-24T10:29:39.988Z,99900.41
2022-10-24T10:32:19.892Z,99886.28
2022-10-24T10:35:27.819Z,99897.81
2022-10-24T10:41:44.234Z,99904.63
2022-10-24T10:48:51.645Z,99928.56
2022-10-24T10:52:31.753Z,99920.34
2022-10-24T11:04:38.834Z,99928.56
2022-10-24T11:10:29.793Z,99935.63
2022-10-24T11:13:18.524Z,99937.03
2022-10-24T11:15:58.530Z,99933.69
2022-10-24T11:18:35.329Z,99937.31
2022-10-24T11:21:11.346Z,99934.88
2022-10-24T11:26:40.844Z,99951.41
2022-10-24T11:29:16.746Z,99942.66
2022-10-24T11:35:00.907Z,99953.88
2022-10-24T11:37:56.625Z,99951.91
2022-10-24T11:55:05.869Z,99968.34
2022-10-24T11:57:45.512Z,99965.00
2022-10-24T12:03:58.917Z,99965.94
2022-10-24T12:06:45.978Z,99971.06
2022-10-24T12:13:30.156Z,99976.97
2022-10-24T12:16:14.996Z,99976.59
2022-10-24T12:18:49.431Z,99983.41
2022-10-24T12:24:59.584Z,99987.22
2022-10-24T12:27:38.325Z,99986.19
2022-10-24T12:30:21.987Z,99984.59
2022-10-24T12:32:59.469Z,99984.75
2022-10-24T13:40:03.904Z,100010.41
2022-10-24T13:45:50.263Z,100016.50
2022-10-24T13:48:24.240Z,100007.47
2022-10-24T16:03:31.034Z,100115.66
2022-10-24T16:10:10.184Z,100119.50
2022-10-24T16:12:45.903Z,100123.97
2022-10-24T16:47:08.257Z,100161.66
2022-10-24T16:50:03.369Z,100169.09
2022-10-24T16:55:47.619Z,100172.94
2022-10-24T16:58:17.359Z,100180.16
2022-10-24T17:00:48.208Z,100165.25
2022-10-24T17:03:16.620Z,100167.53
2022-10-24T17:05:49.366Z,100177.22
2022-10-24T17:08:17.854Z,100177.75
2022-10-24T17:10:54.714Z,100176.94
2022-10-24T17:13:28.937Z,100186.72
2022-10-24T17:16:17.990Z,100193.47
2022-10-24T17:19:15.121Z,100193.47
2022-10-24T17:21:52.292Z,100199.56
2022-10-24T17:24:24.624Z,100199.91
2022-10-24T17:26:54.654Z,100211.00
2022-10-24T17:29:37.380Z,100211.19
2022-10-24T17:32:08.297Z,100216.91
2022-10-24T17:34:39.862Z,100227.53
2022-10-24T17:45:55.466Z,100233.53
2022-10-24T17:51:22.006Z,100239.94
2022-10-24T18:00:39.716Z,100259.81
2022-10-24T18:03:34.312Z,100258.81
2022-10-24T18:09:38.134Z,100267.88
2022-10-24T18:12:11.805Z,100271.78
2022-10-24T18:14:43.904Z,100274.78
2022-10-24T18:17:15.559Z,100279.34
2022-10-24T18:19:50.609Z,100279.34
2022-10-24T18:22:24.023Z,100283.06
2022-10-24T18:24:53.387Z,100289.75
2022-10-24T18:27:22.064Z,100298.69
2022-10-24T18:29:50.715Z,100307.16
2022-10-24T18:32:20.557Z,100304.44
2022-10-24T18:34:51.040Z,100299.91
2022-10-24T18:37:21.609Z,100304.28
2022-10-24T18:39:51.479Z,100298.03
2022-10-24T18:42:27.290Z,100306.47
2022-10-24T18:44:58.098Z,100301.06
2022-10-24T18:47:28.408Z,100300.22
2022-10-24T18:49:57.574Z,100298.75
2022-10-24T18:52:43.340Z,100313.56
2022-10-24T18:55:20.512Z,100312.72
2022-10-24T19:01:05.887Z,100317.56
2022-10-24T19:03:38.196Z,100312.34
2022-10-24T19:06:23.210Z,100312.66
2022-10-24T19:09:02.246Z,100305.91
2022-10-24T19:11:33.345Z,100316.34
2022-10-24T19:14:25.577Z,100317.53
2022-10-24T19:17:19.283Z,100323.06
2022-10-24T19:20:06.322Z,100318.19
2022-10-24T19:26:08.191Z,100326.63
2022-10-24T19:32:06.595Z,100327.97
2022-10-24T19:34:35.078Z,100320.91
2022-10-24T19:37:13.752Z,100324.13
2022-10-24T19:39:42.515Z,100326.66
2022-10-24T19:42:11.316Z,100329.03
2022-10-24T20:41:41.681Z,100356.91
2022-10-24T20:50:16.118Z,100362.63
2022-10-24T20:53:01.639Z,100369.88
2022-10-24T20:55:44.146Z,100377.28
2022-10-24T20:58:19.507Z,100380.81
2022-10-24T21:00:47.754Z,100368.00
2022-10-24T21:03:21.449Z,100374.06
2022-10-24T21:05:57.919Z,100384.34
2022-10-24T21:08:28.315Z,100380.47
2022-10-24T21:10:57.113Z,100382.84
2022-10-24T21:13:26.171Z,100388.88
2022-10-24T21:15:59.772Z,100390.56
2022-10-24T21:18:32.398Z,100393.63
2022-10-24T21:21:08.082Z,100399.69
2022-10-24T21:23:37.715Z,100400.34
2022-10-24T21:26:07.751Z,100399.34
2022-10-24T21:28:37.332Z,100404.06
2022-10-24T21:31:06.513Z,100407.25
2022-10-24T21:33:35.354Z,100405.41
2022-10-24T21:36:09.565Z,100400.38
2022-10-24T21:38:40.411Z,100402.03
2022-10-24T21:41:27.220Z,100408.13
2022-10-24T21:43:59.843Z,100405.09
2022-10-24T21:49:43.899Z,100406.75
2022-10-24T21:52:17.231Z,100414.84
2022-10-24T21:54:52.063Z,100415.84
2022-10-24T21:57:21.527Z,100409.63
2022-10-24T22:00:04.747Z,100416.34
2022-10-24T22:02:47.851Z,100418.56
2022-10-24T22:11:45.778Z,100424.91
2022-10-24T22:14:21.800Z,100430.31
2022-10-24T22:16:53.431Z,100437.69
2022-10-24T22:19:22.013Z,100434.00
2022-10-24T22:22:02.280Z,100449.66
2022-10-24T22:24:39.568Z,100451.34
2022-10-24T22:27:08.434Z,100438.03
2022-10-24T22:36:27.826Z,100450.19
2022-10-24T22:39:15.095Z,100449.31
2022-10-24T22:42:03.089Z,100453.56
2022-10-24T22:45:05.386Z,100452.72
2022-10-24T22:47:47.015Z,100453.03
2022-10-24T22:50:45.976Z,100461.28
2022-10-24T22:53:19.307Z,100471.75
2022-10-24T22:56:03.851Z,100470.88
2022-10-24T22:58:47.793Z,100471.75
2022-10-24T23:01:34.881Z,100473.41
2022-10-24T23:04:21.959Z,100466.22
2022-10-24T23:06:56.902Z,100470.41
2022-10-24T23:09:25.351Z,100470.38
2022-10-24T23:11:54.785Z,100459.59
2022-10-24T23:14:30.155Z,100470.38
2022-10-24T23:17:08.778Z,100464.97
2022-10-24T23:19:52.325Z,100480.28
2022-10-24T23:22:31.973Z,100481.44
2022-10-24T23:25:04.507Z,100486.34
2022-10-24T23:27:39.088Z,100488.84
2022-10-24T23:30:23.446Z,100487.16
2022-10-24T23:32:53.059Z,100490.72
2022-10-24T23:35:34.278Z,100490.22
2022-10-24T23:38:06.212Z,100490.88
2022-10-24T23:40:38.464Z,100489.03
2022-10-24T23:43:07.108Z,100494.28
2022-10-24T23:45:47.274Z,100493.44
2022-10-24T23:51:46.165Z,100501.69
2022-10-24T23:54:15.431Z,100497.16
2022-10-24T23:56:44.470Z,100504.38
2022-10-24T23:59:13.677Z,100495.59
